This is the latest recevied weather packets stored in our database for station/object YO4CIL-MG. If no packets are shown the sender has not sent any weather packets the latest 1 day(s).
| Time | Temp. | Humidity | Pressure | Rain* | Wind** | Luminosity | Snow |
|---|---|---|---|---|---|---|---|
| 1778107526 | 11.67° C | 76% | 1018.2 hPa | - | - | - | - |
| 1778106926 | 11.67° C | 76% | 1018.4 hPa | - | - | - | - |
| 1778106326 | 11.67° C | 76% | 1018.3 hPa | - | - | - | - |
| 1778105726 | 12.22° C | 76% | 1018.4 hPa | - | - | - | - |
| 1778105126 | 12.22° C | 76% | 1018.4 hPa | - | - | - | - |
| 1778104526 | 12.22° C | 76% | 1018.4 hPa | - | - | - | - |
| 1778103926 | 12.22° C | 76% | 1018.4 hPa | - | - | - | - |
| 1778103326 | 11.67° C | 76% | 1018.5 hPa | - | - | - | - |
| 1778101526 | 12.22° C | 76% | 1018.3 hPa | - | - | - | - |
| 1778100326 | 12.22° C | 76% | 1018.5 hPa | - | - | - | - |
| 1778099726 | 12.22° C | 76% | 1018.3 hPa | - | - | - | - |
| 1778097926 | 12.22° C | 76% | 1018.2 hPa | - | - | - | - |
| 1778097326 | 12.22° C | 76% | 1018.2 hPa | - | - | - | - |
| 1778095526 | 12.22° C | 75% | 1018 hPa | - | - | - | - |
| 1778094328 | 12.78° C | 75% | 1018 hPa | - | - | - | - |
| 1778091326 | 13.33° C | 74% | 1017.7 hPa | - | - | - | - |
| 1778090126 | 13.89° C | 74% | 1017.5 hPa | - | - | - | - |
| 1778087726 | 13.89° C | 72% | 1017.1 hPa | - | - | - | - |
| 1778067326 | 16.67° C | 64% | 1018 hPa | - | - | - | - |
| 1778064325 | 16.67° C | 64% | 1018.4 hPa | - | - | - | - |
| 1778061925 | 16.11° C | 66% | 1018.5 hPa | - | - | - | - |
| 1778061325 | 16.11° C | 67% | 1018.4 hPa | - | - | - | - |
| 1778060125 | 16.11° C | 66% | 1018.5 hPa | - | - | - | - |
| 1778059525 | 16.11° C | 67% | 1018.4 hPa | - | - | - | - |
| 1778058325 | 16.11° C | 67% | 1018.3 hPa | - | - | - | - |
* Rain since midnight (hover to see other rain measurements)
** Current wind speed in m/s (hover to see current wind gust speed)